Charters, Kentucky
Current Conditions -  °F | °C
As of 5:35 PM on Sunday 23 Nov 2014 (Local Time) from KFGX Reporting Station
Light Rain Light Rain  
Wind Chill: 55°   Ceiling: 7000
Heat Index: 55°   Visibility: 7mi
Dew Point: 52°   Wind: 18mph
Humidity: 91%   Direction: 130°SE
Pressure: 29.6"   Gusts: 26mph
Location:  38.4929°N, 83.3898°W
Report Text: KFGX 232235Z AUTO 13016G23KT 7SM -RA SCT017 SCT060 OVC070 13/11 A2960 RMK AO2 T01250110
Loading
Personal Weather Stations






























Interactive Weather Map New forecast layout! Learn more

10-Day Weather Forecast

Advertisements
Track Severe Weather on mobile